Oasis, Idaho
Current Conditions -  °F | °C
As of 1:58 PM on Friday 28 Nov 2014 (Local Time) from KMUO Reporting Station
Few Clouds Few Clouds  
Wind Chill: 60°   Ceiling: Unl
Heat Index: 60°   Visibility: 10mi
Dew Point: 34°   Wind: 7mph
Humidity: 38%   Direction: 60°ENE
Pressure: 29.73"   Gusts: NA
Location:  43.2609°N, 115.781°W
Report Text: KMUO 282058Z AUTO 06006KT 10SM FEW190 15/01 A2973 RMK AO2 SLP065 T01540010 57031
Loading
Personal Weather Stations






























Interactive Weather Map New forecast layout! Learn more

10-Day Weather Forecast

Advertisements
Track Severe Weather on mobile